Time;durP1;ratioP1;P1;durP2;ratioP2;P2;SDS_P1;SDS_P2;PMS_P1;PMS_P2;Temp;Humidity;BMP_temperature;BMP_pressure;BME280_temperature;BME280_humidity;BME280_pressure;Samples;Min_cycle;Max_cycle;Signal;HPM_P1;HPM_P2
2022/06/07 00:01:27;;;;;;;3.60;2.90;;;18.70;76.10;;;;;;4954326;28;20113;-67
2022/06/07 00:03:53;;;;;;;3.40;3.10;;;18.70;76.20;;;;;;4949671;28;20031;-67
2022/06/07 00:06:19;;;;;;;3.47;3.20;;;18.70;76.20;;;;;;4953861;28;20031;-67
2022/06/07 00:08:44;;;;;;;3.22;2.97;;;18.80;76.50;;;;;;4947591;28;20031;-66
2022/06/07 00:11:10;;;;;;;3.15;2.85;;;18.80;76.60;;;;;;4943227;28;20035;-67
2022/06/07 00:13:36;;;;;;;2.95;2.70;;;18.80;76.60;;;;;;4942222;28;20036;-67
2022/06/07 00:16:02;;;;;;;3.42;3.13;;;18.80;76.60;;;;;;4947847;28;20034;-67
2022/06/07 00:18:28;;;;;;;3.33;3.03;;;18.80;76.60;;;;;;4948688;28;20093;-67
2022/06/07 00:20:54;;;;;;;5.20;2.97;;;18.80;76.50;;;;;;4949651;28;20533;-67
2022/06/07 00:23:20;;;;;;;4.15;3.40;;;18.80;76.50;;;;;;4946762;28;20554;-67
2022/06/07 00:25:53;;;;;;;3.95;3.10;;;18.90;76.70;;;;;;4945189;28;20168;-64
2022/06/07 00:28:20;;;;;;;3.45;3.15;;;18.80;77.40;;;;;;4947809;28;20036;-67
2022/06/07 00:30:46;;;;;;;4.03;3.40;;;18.80;76.60;;;;;;4946325;28;20076;-67
2022/06/07 00:33:13;;;;;;;3.63;3.30;;;18.80;76.70;;;;;;4947580;28;20035;-66
2022/06/07 00:35:39;;;;;;;3.67;3.38;;;18.80;76.80;;;;;;4941707;28;20114;-67
2022/06/07 00:38:05;;;;;;;4.10;3.70;;;18.90;76.70;;;;;;4951270;28;20442;-67
2022/06/07 00:40:32;;;;;;;3.65;3.38;;;18.90;76.70;;;;;;4948827;28;20117;-66
2022/06/07 00:42:57;;;;;;;5.57;3.80;;;18.90;76.70;;;;;;4943152;28;20043;-67
2022/06/07 00:45:24;;;;;;;4.07;3.60;;;18.90;76.90;;;;;;4948852;28;20794;-66
2022/06/07 00:47:50;;;;;;;4.00;3.70;;;18.90;77.20;;;;;;4949072;28;20606;-66
2022/06/07 00:50:31;;;;;;;4.20;3.58;;;18.90;77.10;;;;;;4962822;28;20031;-67
2022/06/07 00:52:59;;;;;;;4.25;3.85;;;18.90;78.10;;;;;;4947025;28;20039;-66
2022/06/07 00:55:25;;;;;;;3.88;3.58;;;18.90;77.00;;;;;;4945976;28;20114;-67
2022/06/07 00:57:52;;;;;;;3.53;3.25;;;18.90;77.00;;;;;;4944711;28;20046;-67
2022/06/07 01:00:23;;;;;;;3.60;3.30;;;18.90;77.00;;;;;;4946070;28;20514;-66
2022/06/07 01:02:49;;;;;;;3.38;3.17;;;18.90;77.20;;;;;;4940389;28;20126;-67
2022/06/07 01:05:14;;;;;;;18.45;3.38;;;18.90;77.00;;;;;;4944295;28;20869;-67
2022/06/07 01:13:09;;;;;;;3.63;3.20;;;18.80;77.00;;;;;;4948509;28;20129;-67
2022/06/07 01:15:35;;;;;;;4.25;3.00;;;18.80;76.90;;;;;;4946454;28;20317;-66
2022/06/07 01:18:01;;;;;;;3.70;3.40;;;18.70;77.10;;;;;;4946037;28;20042;-67
2022/06/07 01:20:28;;;;;;;3.55;3.25;;;18.70;77.30;;;;;;4950815;28;20129;-67
2022/06/07 01:22:54;;;;;;;3.72;3.42;;;18.60;77.50;;;;;;4964129;28;20046;-67
2022/06/07 01:25:20;;;;;;;4.15;3.33;;;18.60;77.60;;;;;;4963323;28;20038;-67
2022/06/07 01:27:46;;;;;;;3.33;3.05;;;18.50;77.60;;;;;;4945010;28;20035;-67
2022/06/07 01:30:12;;;;;;;3.90;3.50;;;18.50;77.70;;;;;;4945341;28;20490;-67
2022/06/07 01:32:38;;;;;;;3.50;3.20;;;18.50;77.90;;;;;;4945941;28;20118;-66
2022/06/07 01:35:04;;;;;;;4.10;3.22;;;18.50;78.00;;;;;;4946432;28;20043;-67
2022/06/07 01:37:31;;;;;;;3.15;2.95;;;18.50;77.90;;;;;;4947291;28;20031;-67
2022/06/07 01:42:41;;;;;;;4.53;3.50;;;18.50;78.40;;;;;;4945145;28;20081;-67
2022/06/07 01:45:07;;;;;;;5.20;3.45;;;18.50;78.10;;;;;;4947346;28;20035;-67
2022/06/07 01:47:34;;;;;;;5.85;3.15;;;18.60;78.40;;;;;;4948605;28;20043;-67
2022/06/07 01:50:00;;;;;;;3.55;3.30;;;18.60;78.50;;;;;;4946373;28;20544;-67
2022/06/07 01:52:30;;;;;;;3.88;3.28;;;18.60;78.50;;;;;;4948799;28;20386;-67
2022/06/07 01:54:56;;;;;;;4.05;3.70;;;18.60;78.60;;;;;;4949066;28;20053;-67
2022/06/07 01:57:22;;;;;;;3.80;3.50;;;18.60;78.20;;;;;;4944522;28;20031;-67
2022/06/07 01:59:48;;;;;;;3.67;3.38;;;18.60;78.20;;;;;;4947873;28;20521;-67
2022/06/07 02:02:14;;;;;;;3.75;3.45;;;18.60;78.30;;;;;;4944697;28;20509;-67
2022/06/07 02:04:41;;;;;;;4.05;3.45;;;18.60;78.20;;;;;;4946208;28;20031;-66
2022/06/07 02:07:08;;;;;;;3.50;3.20;;;18.50;78.20;;;;;;4953226;28;20047;-67
2022/06/07 02:09:34;;;;;;;3.90;3.50;;;18.50;78.40;;;;;;4946101;28;20031;-67
2022/06/07 02:12:00;;;;;;;3.67;3.22;;;18.60;78.60;;;;;;4943744;28;20039;-67
2022/06/07 02:14:27;;;;;;;3.58;3.28;;;18.60;78.80;;;;;;4946818;28;20042;-67
2022/06/07 02:16:53;;;;;;;4.00;3.60;;;18.60;78.70;;;;;;4944016;28;20042;-67
2022/06/07 02:19:19;;;;;;;4.05;3.60;;;18.70;78.80;;;;;;4947860;28;20463;-67
2022/06/07 02:21:44;;;;;;;5.43;3.85;;;18.70;78.80;;;;;;4943669;28;20031;-67
2022/06/07 02:24:11;;;;;;;5.25;3.83;;;18.70;78.80;;;;;;4945283;28;20031;-67
2022/06/07 02:26:51;;;;;;;4.32;2.95;;;18.70;78.80;;;;;;4948336;28;20576;-66
2022/06/07 02:29:21;;;;;;;1.90;1.80;;;18.60;79.20;;;;;;4945331;28;20074;-67
2022/06/07 02:31:51;;;;;;;1.92;1.83;;;18.50;77.30;;;;;;4945238;28;20055;-66
2022/06/07 02:34:18;;;;;;;2.05;1.70;;;18.40;76.80;;;;;;4945748;28;20054;-67
2022/06/07 02:36:47;;;;;;;2.13;2.00;;;18.20;76.80;;;;;;4945822;28;20039;-66
2022/06/07 02:39:13;;;;;;;2.00;1.60;;;18.10;77.30;;;;;;4946351;28;20031;-65
2022/06/07 02:41:40;;;;;;;2.28;1.70;;;18.00;77.00;;;;;;4948082;28;20031;-64
2022/06/07 02:44:05;;;;;;;2.13;1.83;;;17.80;77.20;;;;;;4945998;28;20090;-66
2022/06/07 02:46:31;;;;;;;2.63;1.80;;;17.80;77.40;;;;;;4949294;28;20031;-66
2022/06/07 02:48:57;;;;;;;1.70;1.55;;;17.70;77.70;;;;;;4949230;28;20031;-66
2022/06/07 02:51:22;;;;;;;2.95;1.92;;;17.60;77.90;;;;;;4950889;28;20034;-66
2022/06/07 02:53:48;;;;;;;1.75;1.63;;;17.50;78.00;;;;;;4951295;28;20514;-66
2022/06/07 02:56:13;;;;;;;2.03;1.92;;;17.40;78.40;;;;;;4949855;28;20039;-66
2022/06/07 02:58:39;;;;;;;3.40;1.95;;;17.30;78.70;;;;;;4948896;28;20514;-66
2022/06/07 03:01:05;;;;;;;2.05;1.85;;;17.20;79.00;;;;;;4950976;28;20043;-66
2022/06/07 03:03:30;;;;;;;2.47;1.55;;;17.20;79.30;;;;;;4950629;28;20042;-67
2022/06/07 03:05:56;;;;;;;2.60;1.80;;;17.10;79.40;;;;;;4952547;28;20427;-67
2022/06/07 03:08:22;;;;;;;2.05;1.73;;;17.10;79.40;;;;;;4950512;28;20596;-66
2022/06/07 03:10:49;;;;;;;1.80;1.70;;;17.00;79.80;;;;;;4943831;28;20114;-66
2022/06/07 03:13:16;;;;;;;1.92;1.60;;;16.90;80.00;;;;;;4947225;28;20047;-65
2022/06/07 03:15:42;;;;;;;1.88;1.73;;;16.90;80.20;;;;;;4948012;28;20596;-66
2022/06/07 03:18:09;;;;;;;2.05;1.63;;;16.80;80.50;;;;;;4948175;28;20070;-66
2022/06/07 03:20:35;;;;;;;6.72;4.50;;;16.80;81.40;;;;;;4949724;28;20391;-66
2022/06/07 03:23:01;;;;;;;2.70;1.83;;;16.80;80.60;;;;;;4948942;28;20502;-65
2022/06/07 03:25:27;;;;;;;2.28;1.88;;;16.80;80.90;;;;;;4948381;28;20053;-66
2022/06/07 03:27:52;;;;;;;1.80;1.70;;;16.80;80.80;;;;;;4950141;28;20038;-66
2022/06/07 03:30:18;;;;;;;2.28;1.85;;;16.80;80.80;;;;;;4949496;28;20660;-66
2022/06/07 03:32:45;;;;;;;4.30;1.70;;;16.80;81.00;;;;;;4949988;28;20035;-65
2022/06/07 03:35:12;;;;;;;1.85;1.63;;;16.80;81.10;;;;;;4950031;28;20043;-66
2022/06/07 03:37:38;;;;;;;2.58;1.80;;;16.80;81.00;;;;;;4953669;28;20507;-66
2022/06/07 03:40:06;;;;;;;1.60;1.50;;;16.80;80.80;;;;;;4946871;28;20218;-64
2022/06/07 03:42:31;;;;;;;2.35;1.50;;;16.80;80.80;;;;;;4953963;28;20042;-65
2022/06/07 03:44:57;;;;;;;1.60;1.50;;;16.80;80.80;;;;;;4946609;28;20027;-66
2022/06/07 03:47:22;;;;;;;1.60;1.50;;;16.80;80.90;;;;;;4951055;28;20042;-66
2022/06/07 03:49:48;;;;;;;4.03;1.85;;;16.80;81.20;;;;;;4947259;28;20499;-65
2022/06/07 03:52:15;;;;;;;1.70;1.60;;;16.80;81.20;;;;;;4949560;28;20048;-66
2022/06/07 03:54:40;;;;;;;1.90;1.80;;;16.80;81.30;;;;;;4945515;28;20572;-65
2022/06/07 03:57:07;;;;;;;1.80;1.63;;;16.80;81.30;;;;;;4945428;28;20040;-66
2022/06/07 03:59:33;;;;;;;1.63;1.48;;;16.80;81.40;;;;;;4947515;28;20040;-66
2022/06/07 04:01:58;;;;;;;1.75;1.45;;;16.80;81.30;;;;;;4945983;28;20062;-66
2022/06/07 04:04:25;;;;;;;1.70;1.60;;;16.90;81.20;;;;;;4954869;28;20086;-65
2022/06/07 04:09:39;;;;;;;1.58;1.48;;;16.90;81.30;;;;;;4946672;28;20031;-66
2022/06/07 04:12:15;;;;;;;1.60;1.50;;;17.00;81.10;;;;;;4939917;28;20380;-65
2022/06/07 04:14:43;;;;;;;1.73;1.55;;;17.10;81.10;;;;;;4949429;28;20499;-64
2022/06/07 04:17:11;;;;;;;2.20;1.70;;;17.10;80.80;;;;;;4947716;28;20054;-66
2022/06/07 04:19:38;;;;;;;1.73;1.60;;;17.20;80.90;;;;;;4945802;28;20031;-66
2022/06/07 04:22:04;;;;;;;1.55;1.45;;;17.20;81.70;;;;;;4949098;28;20038;-66
2022/06/07 04:24:31;;;;;;;1.65;1.55;;;17.20;80.60;;;;;;4946793;28;20043;-65
2022/06/07 04:26:57;;;;;;;1.83;1.73;;;17.30;80.50;;;;;;4948623;28;20423;-65
2022/06/07 04:29:24;;;;;;;1.50;1.40;;;17.30;80.30;;;;;;4950437;28;20047;-66
2022/06/07 04:31:50;;;;;;;1.50;1.40;;;17.30;80.10;;;;;;4953517;28;20043;-66
2022/06/07 04:34:18;;;;;;;1.50;1.40;;;17.40;79.90;;;;;;4954165;28;20106;-64
2022/06/07 04:36:44;;;;;;;1.88;1.60;;;17.40;79.80;;;;;;4964303;28;20127;-65
2022/06/07 04:39:10;;;;;;;1.65;1.55;;;17.40;79.60;;;;;;4952901;28;20387;-65
2022/06/07 04:41:36;;;;;;;1.77;1.52;;;17.40;79.40;;;;;;4950275;28;20089;-65
2022/06/07 04:44:01;;;;;;;5.10;2.22;;;17.40;79.10;;;;;;4953251;28;20110;-66
2022/06/07 04:46:28;;;;;;;1.85;1.75;;;17.40;80.00;;;;;;4952327;28;20035;-66
2022/06/07 04:48:55;;;;;;;3.42;1.90;;;17.40;79.30;;;;;;4953941;28;20059;-66
2022/06/07 04:51:25;;;;;;;1.88;1.50;;;17.40;79.10;;;;;;4949355;28;20031;-66
2022/06/07 04:53:51;;;;;;;1.65;1.25;;;17.40;78.70;;;;;;4949292;28;20030;-65
2022/06/07 04:56:26;;;;;;;1.88;1.60;;;17.30;78.60;;;;;;4954829;28;20118;-64
2022/06/07 04:58:52;;;;;;;;;;;17.30;78.90;;;;;;4969136;28;20586;-66
2022/06/07 05:01:20;;;;;;;1.50;1.40;;;17.30;78.90;;;;;;4950353;28;19926;-64
2022/06/07 05:03:47;;;;;;;1.98;1.42;;;17.20;78.90;;;;;;4953351;28;20035;-66
2022/06/07 05:06:16;;;;;;;1.80;1.70;;;17.20;79.20;;;;;;4952450;28;20039;-65
2022/06/07 05:08:42;;;;;;;2.45;1.77;;;17.20;79.40;;;;;;4953120;28;20082;-66
2022/06/07 05:11:08;;;;;;;3.05;1.83;;;17.20;79.40;;;;;;4952818;28;20035;-66
2022/06/07 05:13:33;;;;;;;2.17;2.08;;;17.20;80.50;;;;;;4949723;28;20558;-66
2022/06/07 05:15:59;;;;;;;2.65;1.88;;;17.20;79.90;;;;;;4951403;28;20046;-63
2022/06/07 05:18:24;;;;;;;2.25;2.00;;;17.20;80.10;;;;;;4949192;28;21838;-66
2022/06/07 05:20:50;;;;;;;2.25;1.63;;;17.20;80.10;;;;;;4951300;28;20047;-65
2022/06/07 05:23:16;;;;;;;1.75;1.65;;;17.20;80.10;;;;;;4952429;28;20066;-65
2022/06/07 05:25:52;;;;;;;2.83;1.48;;;17.10;80.10;;;;;;4953282;28;20441;-66
2022/06/07 05:28:18;;;;;;;1.48;1.38;;;17.10;80.60;;;;;;4951915;28;20026;-65
2022/06/07 05:30:44;;;;;;;1.30;1.25;;;17.10;80.20;;;;;;4949423;28;20042;-66
2022/06/07 05:33:10;;;;;;;1.67;1.58;;;17.00;80.40;;;;;;4947776;28;20514;-66
2022/06/07 05:35:36;;;;;;;1.80;1.70;;;17.00;80.80;;;;;;4946947;28;20046;-65
2022/06/07 05:38:01;;;;;;;2.28;1.58;;;16.90;81.00;;;;;;4946208;28;20043;-66
2022/06/07 05:40:27;;;;;;;1.75;1.65;;;17.00;81.20;;;;;;4952166;28;20039;-66
2022/06/07 05:42:52;;;;;;;1.70;1.50;;;16.90;81.20;;;;;;4951189;28;20070;-66
2022/06/07 05:45:18;;;;;;;1.67;1.58;;;16.80;81.20;;;;;;4951992;28;20046;-66
2022/06/07 05:47:44;;;;;;;1.70;1.60;;;16.80;81.50;;;;;;4953250;28;20442;-66
2022/06/07 05:50:09;;;;;;;2.03;1.70;;;16.70;81.90;;;;;;4955540;28;20567;-65
2022/06/07 05:52:40;;;;;;;2.25;1.63;;;16.70;82.20;;;;;;4952075;28;20217;-66
2022/06/07 05:55:07;;;;;;;1.70;1.45;;;16.70;82.40;;;;;;4950478;28;20043;-64
2022/06/07 05:57:34;;;;;;;1.92;1.77;;;16.70;82.60;;;;;;4964612;28;20594;-66
2022/06/07 06:00:00;;;;;;;1.80;1.70;;;16.70;82.70;;;;;;4949191;28;20618;-66
2022/06/07 06:02:26;;;;;;;1.75;1.60;;;16.70;82.70;;;;;;4948993;28;20093;-65
2022/06/07 06:04:52;;;;;;;1.70;1.60;;;16.70;83.00;;;;;;4952719;28;20371;-66
2022/06/07 06:07:18;;;;;;;2.40;1.70;;;16.60;83.00;;;;;;4955097;28;20058;-66
2022/06/07 06:12:28;;;;;;;2.13;1.88;;;16.70;83.10;;;;;;4947713;28;20114;-66
2022/06/07 06:14:54;;;;;;;2.22;1.88;;;16.60;82.90;;;;;;4949516;28;20130;-66
2022/06/07 06:17:19;;;;;;;1.58;1.48;;;16.60;82.70;;;;;;4951359;28;20483;-66
2022/06/07 06:19:46;;;;;;;1.88;1.70;;;16.60;82.90;;;;;;4953770;28;20081;-63
2022/06/07 06:22:11;;;;;;;1.50;1.40;;;16.60;83.00;;;;;;4953660;28;20406;-66
2022/06/07 06:24:37;;;;;;;1.70;1.60;;;16.60;83.10;;;;;;4952124;28;20027;-66
2022/06/07 06:27:03;;;;;;;2.25;1.70;;;16.60;83.10;;;;;;4953756;28;20036;-66
2022/06/07 06:29:29;;;;;;;2.05;1.48;;;16.60;83.40;;;;;;4955799;28;20050;-66
2022/06/07 06:31:54;;;;;;;1.80;1.70;;;16.60;83.40;;;;;;4957710;28;20031;-65
2022/06/07 06:34:20;;;;;;;1.85;1.58;;;16.70;83.60;;;;;;4956059;28;20507;-66
2022/06/07 06:36:47;;;;;;;2.03;1.33;;;16.70;83.20;;;;;;4950369;28;20487;-66
2022/06/07 06:39:14;;;;;;;2.53;1.25;;;16.70;83.00;;;;;;4953267;28;20810;-64
2022/06/07 06:41:43;;;;;;;1.02;1.02;;;16.70;83.40;;;;;;4955289;28;20038;-66
2022/06/07 06:44:10;;;;;;;1.20;1.10;;;16.80;83.20;;;;;;4952921;28;20342;-66
2022/06/07 06:46:39;;;;;;;1.15;0.90;;;16.80;82.70;;;;;;4951910;28;20047;-66
2022/06/07 06:49:05;;;;;;;1.35;0.90;;;16.90;82.30;;;;;;4955292;28;20035;-65
2022/06/07 06:51:31;;;;;;;2.13;0.90;;;16.90;82.00;;;;;;4953815;28;20110;-66
2022/06/07 06:53:59;;;;;;;1.33;0.90;;;16.90;81.80;;;;;;4953974;28;20381;-66
2022/06/07 06:56:26;;;;;;;1.00;1.00;;;16.90;81.80;;;;;;4939537;28;20428;-65
2022/06/07 06:58:52;;;;;;;0.90;0.80;;;17.00;81.80;;;;;;4969124;28;20035;-66
2022/06/07 07:01:29;;;;;;;1.98;0.93;;;17.00;81.90;;;;;;4956470;28;20046;-66
2022/06/07 07:03:56;;;;;;;0.90;0.90;;;17.00;82.40;;;;;;4954226;28;20065;-66
2022/06/07 07:06:22;;;;;;;1.35;1.02;;;17.10;81.70;;;;;;4955287;28;20094;-66
2022/06/07 07:08:49;;;;;;;2.75;1.02;;;17.10;81.70;;;;;;4952883;28;20524;-65
2022/06/07 07:11:18;;;;;;;1.88;0.95;;;17.20;81.90;;;;;;4948702;28;20073;-66
2022/06/07 07:13:46;;;;;;;1.10;0.93;;;17.20;81.90;;;;;;4954001;28;20121;-66
2022/06/07 07:16:15;;;;;;;1.10;1.10;;;17.30;82.60;;;;;;4955692;28;20039;-66
2022/06/07 07:18:41;;;;;;;1.02;0.98;;;17.30;82.00;;;;;;4952136;28;20038;-66
2022/06/07 07:21:19;;;;;;;1.15;1.02;;;17.40;82.00;;;;;;4952129;28;20039;-66
2022/06/07 07:23:45;;;;;;;1.13;1.02;;;17.50;81.90;;;;;;4956891;28;20034;-66
2022/06/07 07:26:14;;;;;;;1.33;1.10;;;17.60;81.00;;;;;;4950391;28;20039;-66
2022/06/07 07:28:41;;;;;;;1.35;1.10;;;17.70;80.10;;;;;;4954609;28;20070;-66
2022/06/07 07:31:16;;;;;;;1.70;1.60;;;17.70;79.90;;;;;;4956062;28;20043;-66
2022/06/07 07:33:42;;;;;;;1.35;1.25;;;17.70;80.20;;;;;;4955782;28;20035;-66
2022/06/07 07:36:08;;;;;;;1.30;1.25;;;17.70;80.20;;;;;;4956878;28;20051;-66
2022/06/07 07:38:34;;;;;;;1.65;1.55;;;17.70;80.30;;;;;;4953838;28;20039;-66
2022/06/07 07:41:00;;;;;;;1.80;1.60;;;17.80;80.30;;;;;;4954303;28;20039;-66
2022/06/07 07:43:26;;;;;;;1.50;1.40;;;17.80;80.40;;;;;;4951987;28;20039;-66
2022/06/07 07:45:53;;;;;;;1.98;1.60;;;17.90;80.60;;;;;;4953009;28;20043;-66
2022/06/07 07:48:19;;;;;;;1.80;1.70;;;17.90;81.30;;;;;;4957095;28;20038;-66
2022/06/07 07:50:46;;;;;;;1.55;1.45;;;18.00;80.50;;;;;;4952622;28;20058;-67
2022/06/07 07:53:12;;;;;;;1.65;1.55;;;18.00;80.10;;;;;;4953783;28;20071;-66
2022/06/07 07:55:45;;;;;;;1.67;1.40;;;18.10;79.90;;;;;;4953787;28;20047;-66
2022/06/07 07:58:12;;;;;;;1.50;1.40;;;18.10;79.30;;;;;;4950510;28;20035;-66
2022/06/07 08:00:45;;;;;;;1.65;1.55;;;18.10;79.30;;;;;;4955716;28;20410;-66
2022/06/07 08:03:11;;;;;;;1.52;1.42;;;18.10;79.20;;;;;;4947757;28;20035;-67
2022/06/07 08:05:37;;;;;;;2.15;1.60;;;18.20;79.00;;;;;;4955817;28;20030;-65
2022/06/07 08:08:03;;;;;;;2.00;1.90;;;18.20;78.90;;;;;;4954212;28;20042;-67
2022/06/07 08:10:29;;;;;;;1.65;1.55;;;18.20;79.00;;;;;;4962292;28;20379;-67
2022/06/07 08:12:57;;;;;;;2.58;1.85;;;18.30;78.70;;;;;;4950788;28;20067;-66
2022/06/07 08:15:23;;;;;;;1.67;1.58;;;18.30;78.20;;;;;;4955393;28;20043;-64
2022/06/07 08:17:49;;;;;;;1.73;1.55;;;18.40;78.00;;;;;;4956985;28;20034;-66
2022/06/07 08:20:15;;;;;;;1.48;1.38;;;18.40;78.00;;;;;;4952759;28;20043;-66
2022/06/07 08:22:41;;;;;;;2.25;1.50;;;18.50;78.40;;;;;;4951924;28;20082;-67
2022/06/07 08:25:10;;;;;;;2.90;1.40;;;18.50;78.20;;;;;;4950428;28;20035;-67
2022/06/07 08:27:39;;;;;;;1.30;1.20;;;18.50;78.20;;;;;;4953125;28;20480;-67
2022/06/07 08:30:06;;;;;;;1.05;0.95;;;18.60;78.70;;;;;;4953201;28;20035;-67
2022/06/07 08:32:32;;;;;;;1.23;0.90;;;18.60;77.70;;;;;;4966216;28;20035;-67
2022/06/07 08:37:43;;;;;;;1.27;1.17;;;18.70;77.30;;;;;;4953526;28;20130;-66
2022/06/07 08:40:11;;;;;;;1.33;1.00;;;18.70;77.30;;;;;;4951399;28;20031;-67
2022/06/07 08:42:47;;;;;;;1.33;0.88;;;18.70;77.00;;;;;;4951251;28;20394;-67
2022/06/07 08:45:18;;;;;;;1.08;1.00;;;18.80;77.20;;;;;;4951243;28;20034;-63
2022/06/07 08:47:51;;;;;;;1.80;1.10;;;18.80;77.20;;;;;;4953126;28;20409;-67
2022/06/07 08:50:19;;;;;;;1.73;0.98;;;18.90;77.50;;;;;;4952394;28;20031;-67
2022/06/07 08:52:48;;;;;;;1.42;1.30;;;18.90;76.40;;;;;;4953196;28;20050;-67
2022/06/07 08:55:32;;;;;;;1.05;0.93;;;19.00;77.00;;;;;;4953024;28;20117;-66
2022/06/07 08:58:13;;;;;;;0.80;0.80;;;19.10;76.20;;;;;;4950766;28;20403;-67
2022/06/07 09:00:40;;;;;;;1.30;1.20;;;19.10;75.40;;;;;;4949909;28;20192;-67
2022/06/07 09:03:44;;;;;;;0.90;0.90;;;19.20;75.30;;;;;;4952333;28;20039;-67
2022/06/07 09:06:23;;;;;;;2.92;0.90;;;19.20;74.60;;;;;;4952372;28;20050;-67
2022/06/07 09:08:52;;;;;;;1.15;1.00;;;19.30;74.60;;;;;;4952804;28;20051;-67
2022/06/07 09:14:48;;;;;;;2.70;0.88;;;19.40;75.60;;;;;;4948383;28;20544;-66
2022/06/07 09:17:19;;;;;;;1.33;0.82;;;19.50;73.10;;;;;;4950536;28;20089;-66
2022/06/07 09:19:48;;;;;;;1.17;0.60;;;19.50;73.20;;;;;;4949922;28;20130;-67
2022/06/07 09:22:25;;;;;;;0.80;0.80;;;19.60;73.50;;;;;;4955260;28;20114;-67
2022/06/07 09:25:06;;;;;;;1.27;0.90;;;19.60;73.20;;;;;;4948714;28;20036;-67
2022/06/07 09:27:34;;;;;;;0.70;0.70;;;19.70;73.60;;;;;;4950464;28;20405;-67
2022/06/07 09:30:25;;;;;;;1.13;0.70;;;19.70;72.90;;;;;;4951521;28;20035;-67
2022/06/07 09:32:52;;;;;;;0.75;0.75;;;19.80;73.30;;;;;;4951677;28;20035;-64
2022/06/07 09:35:34;;;;;;;1.05;0.77;;;20.00;73.80;;;;;;4948112;28;20039;-67
2022/06/07 09:38:04;;;;;;;1.13;0.90;;;20.10;73.00;;;;;;4954816;28;20041;-67
2022/06/07 09:40:32;;;;;;;0.95;0.70;;;20.10;72.90;;;;;;4952924;28;20081;-67
2022/06/07 09:42:57;;;;;;;1.83;0.95;;;20.20;72.40;;;;;;4954125;28;20442;-67
2022/06/07 09:45:34;;;;;;;0.80;0.80;;;20.20;72.30;;;;;;4952161;28;20506;-67
2022/06/07 09:48:24;;;;;;;1.00;0.70;;;20.30;71.40;;;;;;4951028;28;20041;-67
2022/06/07 09:51:07;;;;;;;1.20;0.60;;;20.30;70.40;;;;;;4949951;28;20074;-64
2022/06/07 09:53:42;;;;;;;0.65;0.65;;;20.40;71.40;;;;;;4953696;28;20044;-68
2022/06/07 09:56:32;;;;;;;0.80;0.70;;;20.40;72.80;;;;;;4954051;28;20054;-67
2022/06/07 09:59:01;;;;;;;1.48;0.80;;;20.50;71.00;;;;;;4953293;28;20146;-67
2022/06/07 10:01:44;;;;;;;1.80;0.70;;;20.60;71.30;;;;;;4955649;28;20058;-64
2022/06/07 10:04:37;;;;;;;0.98;0.70;;;20.70;70.20;;;;;;4954225;28;20042;-67
2022/06/07 10:07:16;;;;;;;1.10;0.80;;;20.70;68.90;;;;;;4957283;28;20027;-67
2022/06/07 10:10:15;;;;;;;1.08;0.70;;;20.80;69.90;;;;;;4951672;28;20586;-67
2022/06/07 10:13:09;;;;;;;0.68;0.68;;;20.80;70.10;;;;;;4950306;28;20039;-67
2022/06/07 10:15:56;;;;;;;0.60;0.60;;;20.80;69.20;;;;;;4970298;28;20043;-67
2022/06/07 10:18:27;;;;;;;1.27;0.90;;;20.80;68.90;;;;;;4955426;28;20035;-67
2022/06/07 10:21:19;;;;;;;0.93;0.73;;;20.80;69.00;;;;;;4951584;28;20117;-67
2022/06/07 10:24:03;;;;;;;0.63;0.63;;;20.90;67.00;;;;;;4946918;28;20443;-67
2022/06/07 10:26:38;;;;;;;1.27;0.52;;;20.90;66.20;;;;;;4952348;28;20658;-67
2022/06/07 10:29:06;;;;;;;1.35;0.60;;;20.90;67.20;;;;;;4954822;28;20042;-67
2022/06/07 10:31:49;;;;;;;0.60;0.60;;;21.00;68.00;;;;;;4951898;28;20039;-67
2022/06/07 10:34:29;;;;;;;0.80;0.50;;;21.10;67.10;;;;;;4970784;28;20026;-66
2022/06/07 10:36:58;;;;;;;1.77;0.80;;;21.20;66.70;;;;;;4955206;28;20042;-67
2022/06/07 10:39:50;;;;;;;0.77;0.50;;;21.20;65.40;;;;;;4957109;28;20491;-66
2022/06/07 10:42:33;;;;;;;1.00;0.75;;;21.20;65.20;;;;;;4955195;28;20027;-66
2022/06/07 10:45:15;;;;;;;0.50;0.50;;;21.30;65.50;;;;;;4953492;28;20110;-67
2022/06/07 10:47:51;;;;;;;1.27;0.70;;;21.30;64.50;;;;;;4953868;28;20031;-67
2022/06/07 10:50:22;;;;;;;1.42;0.70;;;21.40;65.70;;;;;;4955413;28;20040;-67
2022/06/07 10:53:06;;;;;;;0.55;0.52;;;21.50;66.10;;;;;;4953256;28;20035;-66
2022/06/07 10:55:38;;;;;;;1.00;0.50;;;21.60;66.50;;;;;;4953384;28;20098;-67
2022/06/07 10:58:38;;;;;;;0.57;0.50;;;21.70;66.30;;;;;;4957720;28;20039;-67
2022/06/07 11:01:04;;;;;;;1.73;0.60;;;21.80;65.80;;;;;;4950455;28;20502;-66
2022/06/07 11:04:00;;;;;;;0.68;0.60;;;21.90;65.30;;;;;;4954702;28;20090;-67
2022/06/07 11:09:36;;;;;;;0.50;0.43;;;22.10;62.30;;;;;;4954037;28;20114;-67
2022/06/07 11:12:33;;;;;;;0.40;0.40;;;22.10;61.70;;;;;;4948782;28;20043;-67
2022/06/07 11:15:18;;;;;;;1.38;0.60;;;22.10;62.40;;;;;;4951520;28;20035;-67
2022/06/07 11:18:14;;;;;;;0.30;0.30;;;22.20;62.40;;;;;;4952187;28;20062;-67
2022/06/07 11:21:01;;;;;;;0.50;0.50;;;22.20;61.60;;;;;;4948825;28;20035;-66
2022/06/07 11:23:55;;;;;;;0.50;0.50;;;22.20;61.50;;;;;;4966381;28;20046;-67
2022/06/07 11:26:21;;;;;;;1.08;0.50;;;22.30;62.40;;;;;;4952989;28;20043;-67
2022/06/07 11:28:49;;;;;;;3.70;0.50;;;22.30;62.20;;;;;;4966333;28;20119;-66
2022/06/07 11:31:26;;;;;;;2.42;0.50;;;22.40;61.50;;;;;;4951565;28;20099;-67
2022/06/07 11:33:51;;;;;;;0.50;0.50;;;22.40;61.50;;;;;;4951440;28;20054;-67
2022/06/07 11:36:41;;;;;;;1.02;0.50;;;22.50;62.30;;;;;;4951761;28;20398;-67
2022/06/07 11:39:28;;;;;;;0.90;0.30;;;22.60;62.40;;;;;;4955778;28;20138;-67
2022/06/07 11:41:57;;;;;;;0.47;0.43;;;22.70;61.20;;;;;;4955516;28;20031;-67
2022/06/07 11:44:38;;;;;;;2.38;0.50;;;22.70;61.30;;;;;;4951254;28;20032;-67
2022/06/07 11:47:06;;;;;;;0.57;0.45;;;22.70;60.30;;;;;;4954210;28;20419;-67
2022/06/07 11:49:54;;;;;;;0.77;0.50;;;22.70;60.40;;;;;;4954621;28;20035;-67
2022/06/07 11:52:30;;;;;;;0.95;0.52;;;22.70;60.30;;;;;;4951332;28;20173;-67
2022/06/07 11:55:17;;;;;;;0.38;0.35;;;22.60;61.60;;;;;;4955081;28;20066;-67
2022/06/07 11:57:57;;;;;;;1.38;0.60;;;22.60;60.10;;;;;;4952396;28;20112;-67
2022/06/07 12:00:38;;;;;;;0.77;0.50;;;22.60;59.10;;;;;;4955020;28;20125;-67
2022/06/07 12:03:08;;;;;;;1.50;0.40;;;22.60;59.70;;;;;;4950742;28;20074;-67
2022/06/07 12:05:49;;;;;;;0.40;0.40;;;22.60;59.70;;;;;;4953241;28;20035;-67
2022/06/07 12:08:29;;;;;;;1.30;0.50;;;22.50;60.70;;;;;;4954794;28;20050;-67
2022/06/07 12:11:20;;;;;;;0.47;0.45;;;22.50;61.10;;;;;;4954921;28;21467;-67
2022/06/07 12:13:54;;;;;;;0.75;0.60;;;22.60;60.60;;;;;;4972092;28;20042;-66
2022/06/07 12:16:42;;;;;;;0.98;0.52;;;22.60;60.00;;;;;;4975116;28;20561;-67
2022/06/07 12:19:21;;;;;;;0.77;0.60;;;22.70;59.00;;;;;;4957365;28;20182;-67
2022/06/07 12:22:05;;;;;;;1.08;0.50;;;22.70;60.70;;;;;;4959149;28;20529;-67
2022/06/07 12:25:01;;;;;;;1.63;0.60;;;22.70;60.70;;;;;;4958873;28;20544;-67
2022/06/07 12:27:31;;;;;;;1.75;0.57;;;22.70;60.00;;;;;;4953173;28;20020;-67
2022/06/07 12:30:02;;;;;;;0.80;0.50;;;22.70;61.50;;;;;;4958010;28;20031;-67
2022/06/07 12:32:36;;;;;;;1.13;0.57;;;22.80;60.80;;;;;;4959082;28;20034;-68
2022/06/07 12:35:20;;;;;;;1.37;0.53;;;22.80;60.50;;;;;;4959584;28;20451;-68
2022/06/07 12:37:49;;;;;;;0.85;0.60;;;22.80;60.50;;;;;;4957859;28;20278;-67
2022/06/07 12:40:44;;;;;;;0.50;0.50;;;22.90;60.60;;;;;;5077186;27;20807;-67
2022/06/07 12:43:24;;;;;;;0.82;0.60;;;22.90;59.50;;;;;;5052028;28;20025;-66
2022/06/07 12:45:58;;;;;;;0.98;0.60;;;22.90;60.60;;;;;;5052210;28;20524;-67
2022/06/07 12:48:26;;;;;;;1.15;0.60;;;23.00;61.00;;;;;;5052356;28;20083;-70
2022/06/07 12:50:52;;;;;;;1.08;0.70;;;23.10;62.00;;;;;;5053660;28;20377;-67
2022/06/07 12:53:24;;;;;;;1.73;0.50;;;23.20;61.00;;;;;;5049911;28;20052;-67
2022/06/07 12:56:11;;;;;;;0.50;0.50;;;23.20;59.80;;;;;;5052747;28;20078;-67
2022/06/07 12:58:45;;;;;;;1.67;0.50;;;23.30;59.10;;;;;;5052266;28;20086;-66
2022/06/07 13:01:32;;;;;;;0.70;0.55;;;23.40;59.70;;;;;;5052777;28;20053;-67
2022/06/07 13:04:03;;;;;;;0.88;0.50;;;23.40;58.90;;;;;;5053799;28;20032;-67
2022/06/07 13:06:28;;;;;;;0.95;0.70;;;23.40;59.60;;;;;;5052396;28;20033;-67
2022/06/07 13:08:57;;;;;;;4.32;0.68;;;23.40;59.80;;;;;;5048169;28;20797;-67
2022/06/07 13:11:23;;;;;;;0.80;0.50;;;23.40;59.60;;;;;;5046527;28;20039;-67
2022/06/07 13:13:51;;;;;;;1.35;0.60;;;23.40;59.70;;;;;;5047554;28;20115;-67
2022/06/07 13:16:20;;;;;;;2.80;0.60;;;23.40;59.40;;;;;;5046520;28;20105;-67
2022/06/07 13:19:17;;;;;;;1.15;0.80;;;23.40;59.80;;;;;;5045730;28;20048;-67
2022/06/07 13:22:01;;;;;;;0.70;0.70;;;23.40;59.70;;;;;;5043401;28;20095;-67
2022/06/07 13:24:47;;;;;;;2.25;1.08;;;23.30;59.90;;;;;;5047364;28;20045;-66
2022/06/07 13:27:37;;;;;;;0.90;0.90;;;23.20;60.50;;;;;;5045771;28;20059;-67
2022/06/07 13:30:17;;;;;;;0.95;0.80;;;23.10;60.10;;;;;;5047665;28;20171;-67